Time;durP1;ratioP1;P1;durP2;ratioP2;P2;SDS_P1;SDS_P2;PMS_P1;PMS_P2;Temp;Humidity;BMP_temperature;BMP_pressure;BME280_temperature;BME280_humidity;BME280_pressure;Samples;Min_cycle;Max_cycle;Signal;HPM_P1;HPM_P2
2023/10/09 00:03:03;;;;;;;;;;;;;;;12.91;100.00;101864.16;5010018;28;20512;-66
2023/10/09 00:08:16;;;;;;;22.88;16.65;;;;;;;12.93;100.00;101862.47;5022824;28;20065;-66
2023/10/09 00:10:53;;;;;;;21.63;17.42;;;;;;;12.94;100.00;101858.19;5009913;28;20062;-66
2023/10/09 00:13:23;;;;;;;23.33;17.27;;;;;;;12.95;100.00;101855.63;5009132;28;20283;-66
2023/10/09 00:15:53;;;;;;;22.92;16.65;;;;;;;12.94;100.00;101851.28;5009896;28;20029;-65
2023/10/09 00:18:28;;;;;;;23.05;18.08;;;;;;;12.96;100.00;101849.63;5008814;28;20072;-65
2023/10/09 00:20:54;;;;;;;25.15;18.38;;;;;;;12.99;100.00;101843.63;5009509;28;20052;-65
2023/10/09 00:23:20;;;;;;;23.67;17.02;;;;;;;13.04;100.00;101849.03;5008457;28;20044;-66
2023/10/09 00:26:12;;;;;;;26.15;19.10;;;;;;;13.07;100.00;101847.44;5009385;28;20462;-65
2023/10/09 00:28:38;;;;;;;21.10;16.90;;;;;;;13.12;100.00;101855.41;5008446;28;20401;-65
2023/10/09 00:31:06;;;;;;;25.00;19.45;;;;;;;13.16;100.00;101844.28;5008770;28;20033;-66
2023/10/09 00:33:32;;;;;;;23.58;18.13;;;;;;;13.20;100.00;101833.13;5009509;28;20040;-66
2023/10/09 00:36:10;;;;;;;25.48;18.52;;;;;;;13.27;100.00;101828.16;5009259;28;20026;-65
2023/10/09 00:38:51;;;;;;;23.73;19.63;;;;;;;13.32;100.00;101821.41;5009299;28;20100;-66
2023/10/09 00:41:24;;;;;;;24.33;17.80;;;;;;;13.36;100.00;101820.69;5005220;28;20045;-65
2023/10/09 00:43:50;;;;;;;23.40;19.30;;;;;;;13.39;100.00;101820.81;5019001;28;21414;-65
2023/10/09 00:48:51;;;;;;;21.80;17.85;;;;;;;13.45;100.00;101810.59;5008881;28;20026;-66
2023/10/09 00:51:18;;;;;;;21.70;18.25;;;;;;;13.49;100.00;101815.94;5008397;28;20070;-66
2023/10/09 00:53:51;;;;;;;20.60;18.35;;;;;;;13.51;100.00;101819.47;5021865;28;20398;-66
2023/10/09 00:59:08;;;;;;;21.35;17.20;;;;;;;13.54;100.00;101827.44;5008910;28;20084;-66
2023/10/09 01:01:36;;;;;;;22.52;17.40;;;;;;;13.57;100.00;101828.44;5008616;28;20025;-67
2023/10/09 01:04:15;;;;;;;18.95;16.92;;;;;;;13.61;100.00;101832.03;5009332;28;20085;-65
2023/10/09 01:06:47;;;;;;;21.17;17.95;;;;;;;13.63;100.00;101829.47;5009439;28;20541;-65
2023/10/09 01:09:14;;;;;;;19.20;17.20;;;;;;;13.64;100.00;101826.91;4997905;28;20454;-66
2023/10/09 01:12:03;;;;;;;21.63;16.35;;;;;;;13.66;100.00;101830.47;5008171;28;20051;-66
2023/10/09 01:14:30;;;;;;;21.65;17.10;;;;;;;13.65;100.00;101828.69;5009294;28;20030;-66
2023/10/09 01:16:57;;;;;;;24.40;17.30;;;;;;;13.68;100.00;101826.19;5008808;28;20489;-66
2023/10/09 01:19:30;;;;;;;21.90;16.42;;;;;;;13.71;100.00;101832.34;5008445;28;20026;-66
2023/10/09 01:22:02;;;;;;;18.95;16.58;;;;;;;13.71;100.00;101827.16;5007694;28;20493;-66
2023/10/09 01:24:31;;;;;;;18.55;16.38;;;;;;;13.71;100.00;101827.16;5007421;28;20021;-66
2023/10/09 01:26:59;;;;;;;21.95;16.88;;;;;;;13.69;100.00;101817.53;5008566;28;20028;-66
2023/10/09 01:29:27;;;;;;;19.95;15.88;;;;;;;13.72;100.00;101819.38;5008308;28;20486;-67
2023/10/09 01:31:54;;;;;;;20.92;15.90;;;;;;;13.73;100.00;101830.66;5008025;28;20025;-67
2023/10/09 01:34:24;;;;;;;20.63;16.05;;;;;;;13.74;100.00;101835.06;5008281;28;20017;-66
2023/10/09 01:36:53;;;;;;;18.20;16.27;;;;;;;13.76;100.00;101836.00;5017185;28;20037;-66
2023/10/09 01:39:31;;;;;;;21.83;16.35;;;;;;;13.77;100.00;101843.88;5027377;28;20028;-66
2023/10/09 01:42:05;;;;;;;19.45;15.70;;;;;;;13.77;100.00;101833.44;5026706;28;20053;-66
2023/10/09 01:44:34;;;;;;;21.48;16.70;;;;;;;13.77;100.00;101833.44;5019058;28;20514;-67
2023/10/09 01:47:06;;;;;;;19.15;15.85;;;;;;;13.78;100.00;101834.34;5007128;28;20029;-66
2023/10/09 01:49:32;;;;;;;17.52;15.60;;;;;;;13.77;100.00;101825.63;5007557;28;20030;-66
2023/10/09 01:52:07;;;;;;;19.38;15.10;;;;;;;13.78;100.00;101829.13;5020353;28;20063;-66
2023/10/09 01:54:36;;;;;;;18.85;15.63;;;;;;;13.76;100.00;101826.44;5007817;28;20041;-66
2023/10/09 01:57:05;;;;;;;18.73;15.60;;;;;;;13.77;100.00;101823.03;5007625;28;20088;-66
2023/10/09 01:59:32;;;;;;;20.08;16.13;;;;;;;13.77;100.00;101827.34;5007802;28;20048;-66
2023/10/09 02:02:00;;;;;;;19.30;15.45;;;;;;;13.77;100.00;101825.63;5007894;28;20069;-67
2023/10/09 02:04:26;;;;;;;20.15;16.63;;;;;;;13.77;100.00;101823.03;5007486;28;20033;-65
2023/10/09 02:06:52;;;;;;;20.00;15.45;;;;;;;13.77;100.00;101820.41;5008150;28;20026;-67
2023/10/09 02:09:22;;;;;;;18.73;15.10;;;;;;;13.79;100.00;101818.75;5007593;28;20438;-69
2023/10/09 02:11:48;;;;;;;18.83;15.45;;;;;;;13.81;100.00;101821.41;5008488;28;20038;-67
2023/10/09 02:14:19;;;;;;;20.60;15.18;;;;;;;13.82;100.00;101828.38;5008247;28;20024;-67
2023/10/09 02:17:03;;;;;;;;;;;;;;;13.84;100.00;101823.22;5008821;28;20486;-67
2023/10/09 02:19:34;;;;;;;19.33;14.90;;;;;;;13.86;100.00;101824.16;5009863;28;20424;-66
2023/10/09 02:22:11;;;;;;;;;;;;;;;13.86;100.00;101817.25;5009355;28;20113;-66
2023/10/09 02:27:19;;;;;;;18.08;15.45;;;;;;;13.87;100.00;101808.56;5008931;28;20030;-66
2023/10/09 02:29:47;;;;;;;;;;;;;;;13.88;100.00;101812.97;5010156;28;20111;-66
2023/10/09 02:32:25;;;;;;;20.05;15.45;;;;;;;13.89;100.00;101817.34;5025221;28;19909;-66
2023/10/09 02:34:53;;;;;;;19.50;14.00;;;;;;;13.89;100.00;101806.91;5003008;28;20087;-65
2023/10/09 02:37:23;;;;;;;17.92;14.90;;;;;;;13.89;100.00;101801.72;5013254;28;20543;-65
2023/10/09 02:39:52;;;;;;;18.70;15.68;;;;;;;13.90;100.00;101803.50;5012853;28;20013;-66
2023/10/09 02:42:23;;;;;;;17.10;14.63;;;;;;;13.91;100.00;101797.44;5013722;28;20075;-66
2023/10/09 02:44:52;;;;;;;17.02;14.48;;;;;;;13.91;100.00;101789.63;5030938;28;20104;-66
2023/10/09 02:47:29;;;;;;;19.13;15.05;;;;;;;13.91;100.00;101784.41;5025676;28;20124;-66
2023/10/09 02:50:00;;;;;;;21.23;15.68;;;;;;;13.93;100.00;101777.53;5011082;28;20021;-66
2023/10/09 02:52:32;;;;;;;16.33;14.63;;;;;;;13.92;100.00;101775.75;5005580;28;20036;-66
2023/10/09 02:55:00;;;;;;;17.67;15.50;;;;;;;13.95;100.00;101777.59;5028915;28;20051;-66
2023/10/09 02:57:36;;;;;;;17.42;15.60;;;;;;;13.96;100.00;101786.28;5019124;28;20032;-66
2023/10/09 03:00:08;;;;;;;18.27;15.18;;;;;;;13.96;100.00;101786.28;5017021;28;20033;-66
2023/10/09 03:02:33;;;;;;;20.52;14.77;;;;;;;13.96;100.00;101779.34;5019860;28;20080;-66
2023/10/09 03:05:01;;;;;;;17.98;14.32;;;;;;;13.97;100.00;101793.25;5026996;28;20029;-66
2023/10/09 03:07:26;;;;;;;19.50;14.20;;;;;;;13.97;100.00;101785.44;5030076;28;20551;-66
2023/10/09 03:09:51;;;;;;;18.00;15.52;;;;;;;13.98;100.00;101793.31;5026086;28;20033;-66
2023/10/09 03:12:18;;;;;;;18.25;14.63;;;;;;;13.98;100.00;101787.19;5010279;28;20489;-66
2023/10/09 03:14:44;;;;;;;21.58;15.05;;;;;;;13.97;100.00;101788.06;5026207;28;20025;-66
2023/10/09 03:17:11;;;;;;;19.92;14.80;;;;;;;13.96;100.00;101786.28;5029594;28;20481;-66
2023/10/09 03:19:39;;;;;;;18.25;14.82;;;;;;;13.97;100.00;101782.84;5028698;28;20025;-66
2023/10/09 03:22:09;;;;;;;18.23;14.63;;;;;;;13.97;100.00;101777.63;5028088;28;20048;-66
2023/10/09 03:24:36;;;;;;;17.27;14.70;;;;;;;13.97;100.00;101769.81;5028958;28;20164;-66
2023/10/09 03:27:02;;;;;;;19.77;14.52;;;;;;;13.98;100.00;101763.75;5028927;28;20040;-66
2023/10/09 03:29:27;;;;;;;19.88;14.73;;;;;;;13.98;100.00;101766.34;5028512;28;20025;-66
2023/10/09 03:31:55;;;;;;;21.45;15.27;;;;;;;13.99;100.00;101760.31;5029622;28;20029;-66
2023/10/09 03:34:20;;;;;;;17.73;14.80;;;;;;;14.00;100.00;101762.09;5015385;28;20033;-67
2023/10/09 03:36:51;;;;;;;16.40;14.60;;;;;;;14.00;100.00;101762.97;5029063;28;20025;-66
2023/10/09 03:42:04;;;;;;;20.60;14.93;;;;;;;14.00;100.00;101762.97;5026361;28;20615;-66
2023/10/09 03:44:33;;;;;;;16.90;14.90;;;;;;;13.99;100.00;101749.91;5018199;28;20087;-65
2023/10/09 03:46:58;;;;;;;17.50;14.75;;;;;;;13.99;100.00;101744.69;5014004;28;20033;-65
2023/10/09 03:49:25;;;;;;;16.13;14.32;;;;;;;13.99;100.00;101745.59;5017483;28;20025;-67
2023/10/09 03:51:51;;;;;;;16.30;14.48;;;;;;;14.00;100.00;101746.44;5026010;28;20055;-66
2023/10/09 03:54:20;;;;;;;17.65;15.77;;;;;;;13.99;100.00;101750.81;5029409;28;20465;-66
2023/10/09 03:56:54;;;;;;;19.10;15.85;;;;;;;13.99;100.00;101750.81;5026225;28;20029;-67
2023/10/09 03:59:21;;;;;;;20.70;14.30;;;;;;;14.00;100.00;101746.44;5019602;28;20021;-66
2023/10/09 04:01:51;;;;;;;19.92;15.20;;;;;;;14.01;100.00;101753.44;5027568;28;20032;-66
2023/10/09 04:04:16;;;;;;;18.35;14.85;;;;;;;14.02;100.00;101755.22;5029435;28;20473;-66
2023/10/09 04:06:41;;;;;;;21.27;15.32;;;;;;;14.00;100.00;101747.34;5028540;28;20083;-65
2023/10/09 04:09:28;;;;;;;20.73;16.15;;;;;;;14.00;100.00;101760.38;5029427;28;20034;-66
2023/10/09 04:14:50;;;;;;;17.13;15.13;;;;;;;14.00;100.00;101756.88;5028169;28;20112;-66
2023/10/09 04:20:25;;;;;;;20.38;15.52;;;;;;;13.98;100.00;101745.50;5028693;28;20057;-66
2023/10/09 04:22:50;;;;;;;18.95;14.88;;;;;;;13.97;100.00;101742.03;5015265;28;20466;-66
2023/10/09 04:25:27;;;;;;;19.15;14.95;;;;;;;13.94;100.00;101726.31;5029009;28;20029;-67
2023/10/09 04:28:08;;;;;;;17.83;15.00;;;;;;;13.95;100.00;101725.47;5027636;28;20024;-65
2023/10/09 04:30:40;;;;;;;19.58;16.02;;;;;;;13.95;100.00;101737.59;5027041;28;20026;-66
2023/10/09 04:33:25;;;;;;;;;;;;;;;13.95;100.00;101732.41;5005236;28;20095;-66
2023/10/09 04:36:16;;;;;;;17.55;14.82;;;;;;;13.95;100.00;101738.50;5011221;28;19913;-67
2023/10/09 04:38:37;;;;;;;18.25;15.25;;;;;;;13.95;100.00;101748.03;5021476;28;20549;-66
2023/10/09 04:41:05;;;;;;;16.88;13.82;;;;;;;13.96;100.00;101760.25;5026391;28;20494;-65
2023/10/09 04:43:32;;;;;;;21.23;14.77;;;;;;;13.97;100.00;101760.28;5014519;28;20557;-67
2023/10/09 04:46:12;;;;;;;18.73;13.98;;;;;;;13.97;100.00;101769.81;5008970;28;20030;-66
2023/10/09 04:48:38;;;;;;;16.88;15.07;;;;;;;13.98;100.00;101771.56;5009417;28;20022;-66
2023/10/09 04:51:21;;;;;;;17.77;14.65;;;;;;;13.97;100.00;101767.22;5008720;28;20040;-66
2023/10/09 04:53:54;;;;;;;19.33;15.23;;;;;;;13.98;100.00;101779.38;5021235;28;20025;-66
2023/10/09 04:56:24;;;;;;;21.25;15.35;;;;;;;13.98;100.00;101768.97;5007537;28;20033;-66
2023/10/09 04:58:49;;;;;;;18.88;15.68;;;;;;;13.99;100.00;101775.97;5021638;28;20397;-65
2023/10/09 05:01:22;;;;;;;19.05;16.38;;;;;;;13.97;100.00;101768.09;5020769;28;20037;-66
2023/10/09 05:03:56;;;;;;;20.00;15.10;;;;;;;13.97;100.00;101762.00;5021975;28;20036;-67
2023/10/09 05:06:32;;;;;;;19.38;15.13;;;;;;;13.99;100.00;101768.16;5022405;28;20146;-65
2023/10/09 05:09:07;;;;;;;18.88;14.85;;;;;;;13.99;100.00;101778.56;5013731;28;20614;-67
2023/10/09 05:11:53;;;;;;;19.20;15.27;;;;;;;13.98;100.00;101771.56;5021428;28;20064;-66
2023/10/09 05:14:26;;;;;;;18.42;15.00;;;;;;;13.97;100.00;101768.09;5008295;28;20053;-67
2023/10/09 05:17:01;;;;;;;19.45;16.35;;;;;;;13.98;100.00;101774.16;5018941;28;20031;-66
2023/10/09 05:19:29;;;;;;;19.52;15.68;;;;;;;13.98;100.00;101769.84;5023080;28;20025;-66
2023/10/09 05:21:58;;;;;;;20.42;15.80;;;;;;;13.98;100.00;101763.75;5006706;28;20033;-66
2023/10/09 05:24:24;;;;;;;17.90;14.98;;;;;;;13.97;100.00;101762.88;5008162;28;20291;-66
2023/10/09 05:32:03;;;;;;;18.90;15.80;;;;;;;13.98;100.00;101774.16;5009089;28;20552;-66
2023/10/09 05:37:32;;;;;;;18.52;16.05;;;;;;;13.99;100.00;101795.09;4999043;28;20088;-66
2023/10/09 05:40:22;;;;;;;20.85;16.27;;;;;;;14.00;100.00;101799.47;5010723;28;20076;-66
2023/10/09 05:42:44;;;;;;;21.98;16.35;;;;;;;14.01;100.00;101801.22;5020174;28;20053;-66
2023/10/09 05:47:57;;;;;;;21.90;16.30;;;;;;;14.01;100.00;101805.56;5005829;28;20034;-66
2023/10/09 06:08:27;;;;;;;21.08;17.25;;;;;;;14.03;100.00;101841.25;5005649;28;20049;-66
2023/10/09 06:13:37;;;;;;;19.35;17.05;;;;;;;14.05;100.00;101828.25;4999113;28;20418;-64
2023/10/09 06:16:19;;;;;;;23.42;17.50;;;;;;;14.05;100.00;101823.06;4996261;28;20030;-65
2023/10/09 06:18:53;;;;;;;24.75;18.77;;;;;;;14.08;100.00;101824.91;5005880;28;20114;-65
2023/10/09 06:21:39;;;;;;;24.30;17.33;;;;;;;14.06;100.00;101819.63;5007259;28;20022;-64
2023/10/09 06:24:14;;;;;;;20.88;18.42;;;;;;;14.07;100.00;101824.00;5006224;28;20045;-65
2023/10/09 06:26:51;;;;;;;29.45;18.83;;;;;;;14.09;100.00;101813.63;5009726;28;20108;-64
2023/10/09 06:29:34;;;;;;;24.45;18.55;;;;;;;14.08;100.00;101804.94;5027794;28;20030;-64
2023/10/09 06:34:57;;;;;;;24.00;18.95;;;;;;;14.10;100.00;101818.91;5026678;28;20478;-65
2023/10/09 06:45:08;;;;;;;21.75;19.02;;;;;;;14.16;100.00;101836.44;5001943;28;20033;-65
2023/10/09 06:47:41;;;;;;;23.02;18.88;;;;;;;14.17;100.00;101827.81;5026035;28;20029;-64
2023/10/09 06:55:51;;;;;;;22.75;18.67;;;;;;;14.21;100.00;101813.16;5007043;28;20095;-65
2023/10/09 06:58:22;;;;;;;23.27;19.83;;;;;;;14.22;100.00;101805.38;5013020;28;20449;-65
2023/10/09 07:03:32;;;;;;;25.30;20.00;;;;;;;14.26;100.00;101795.94;5019606;28;20025;-65
2023/10/09 07:16:58;;;;;;;24.05;20.73;;;;;;;14.37;100.00;101765.84;5027203;28;20033;-66
2023/10/09 07:22:04;;;;;;;;;;;;;;;14.45;100.00;101765.22;5010527;28;20040;-65
2023/10/09 07:27:16;;;;;;;26.13;20.05;;;;;;;14.50;100.00;101769.75;5016458;28;20067;-67
2023/10/09 07:29:47;;;;;;;21.95;18.42;;;;;;;14.53;100.00;101785.47;5029381;28;20397;-67
2023/10/09 07:32:20;;;;;;;23.20;19.02;;;;;;;14.57;100.00;101801.22;5028371;28;20090;-67
2023/10/09 07:34:59;;;;;;;24.10;18.25;;;;;;;14.57;100.00;101828.19;5028929;28;20044;-67
2023/10/09 07:37:31;;;;;;;25.65;19.05;;;;;;;14.58;100.00;101827.34;5030046;28;20276;-67
2023/10/09 07:39:59;;;;;;;21.30;18.35;;;;;;;14.58;100.00;101845.63;5028925;28;20026;-67
2023/10/09 07:42:43;;;;;;;23.45;18.33;;;;;;;14.59;100.00;101852.59;5029585;28;20049;-67
2023/10/09 07:48:00;;;;;;;22.40;17.38;;;;;;;14.59;100.00;101855.19;5016497;28;20427;-67
2023/10/09 07:51:05;;;;;;;26.35;20.67;;;;;;;14.59;100.00;101844.75;5009607;28;20083;-67
2023/10/09 07:53:18;;;;;;;25.45;19.92;;;;;;;14.60;100.00;101850.88;5008510;28;20508;-67
2023/10/09 07:55:58;;;;;;;26.80;19.30;;;;;;;14.60;100.00;101837.84;5009800;28;20025;-68
2023/10/09 07:58:27;;;;;;;25.95;19.15;;;;;;;14.59;100.00;101829.13;5005804;28;20025;-67
2023/10/09 08:03:38;;;;;;;24.35;19.10;;;;;;;14.57;100.00;101817.75;5009875;28;20064;-67
2023/10/09 08:06:29;;;;;;;25.05;19.67;;;;;;;14.59;100.00;101808.25;5022973;28;20086;-67
2023/10/09 08:17:13;;;;;;;22.75;18.58;;;;;;;14.64;100.00;101840.56;5013900;28;20406;-67
2023/10/09 08:19:54;;;;;;;27.13;20.67;;;;;;;14.67;100.00;101836.28;5009506;28;20097;-67
2023/10/09 08:24:58;;;;;;;22.70;20.00;;;;;;;14.73;100.00;101839.09;5008865;28;19910;-67
2023/10/09 08:33:40;;;;;;;23.65;20.33;;;;;;;14.84;100.00;101822.06;5018638;28;20145;-67
2023/10/09 08:35:51;;;;;;;23.63;19.67;;;;;;;14.93;100.00;101807.53;5001056;28;20517;-67
2023/10/09 08:38:23;;;;;;;23.77;20.13;;;;;;;14.97;100.00;101797.22;5014468;28;20654;-67
2023/10/09 08:40:50;;;;;;;25.05;20.42;;;;;;;15.06;100.00;101799.22;5027971;28;20050;-67
2023/10/09 08:43:20;;;;;;;28.88;22.00;;;;;;;15.13;100.00;101789.81;5027459;28;20024;-67
2023/10/09 08:45:47;;;;;;;27.55;21.05;;;;;;;15.21;100.00;101808.31;5027825;28;20040;-67
2023/10/09 08:48:17;;;;;;;29.02;21.67;;;;;;;15.30;100.00;101805.97;5026664;28;20109;-67
2023/10/09 08:50:49;;;;;;;24.42;19.30;;;;;;;15.36;100.00;101798.31;5027902;28;20205;-68
2023/10/09 08:53:16;;;;;;;26.10;19.77;;;;;;;15.42;100.00;101802.81;5025987;28;20400;-68
2023/10/09 08:55:43;;;;;;;22.33;19.08;;;;;;;15.46;100.00;101794.22;5025806;28;20033;-67
2023/10/09 08:58:30;;;;;;;22.20;18.98;;;;;;;15.55;100.00;101790.97;5026862;28;20044;-67
2023/10/09 09:00:58;;;;;;;23.30;19.25;;;;;;;15.65;100.00;101801.69;5026348;28;20458;-67
2023/10/09 09:03:24;;;;;;;25.27;20.48;;;;;;;15.71;100.00;101800.09;5019463;28;20690;-67
2023/10/09 09:06:04;;;;;;;24.42;19.05;;;;;;;15.82;100.00;101800.38;5023027;28;20039;-67
2023/10/09 09:08:31;;;;;;;24.90;18.60;;;;;;;15.94;100.00;101806.75;5018759;28;20061;-67
2023/10/09 09:10:59;;;;;;;21.83;17.67;;;;;;;16.01;100.00;101816.53;5026642;28;20477;-67
2023/10/09 09:13:25;;;;;;;23.85;19.70;;;;;;;16.10;100.00;101830.69;5023059;28;20438;-68
2023/10/09 09:15:53;;;;;;;22.35;17.88;;;;;;;16.17;100.00;101858.78;5025885;28;20025;-67
2023/10/09 09:18:19;;;;;;;21.40;19.10;;;;;;;16.23;100.00;101853.69;5027106;28;20021;-67
2023/10/09 09:20:47;;;;;;;23.85;18.10;;;;;;;16.31;100.00;101849.53;5027840;28;20067;-67
2023/10/09 09:23:13;;;;;;;22.05;18.92;;;;;;;16.37;100.00;101850.53;5027357;28;20025;-67
2023/10/09 09:25:47;;;;;;;22.40;19.40;;;;;;;16.42;100.00;101864.59;5019488;28;20474;-68
2023/10/09 09:28:19;;;;;;;23.27;17.55;;;;;;;16.48;100.00;101858.63;5011398;28;20122;-68
2023/10/09 09:30:50;;;;;;;21.38;18.75;;;;;;;16.53;100.00;101849.16;5013511;28;20033;-68
2023/10/09 09:33:26;;;;;;;21.08;18.10;;;;;;;16.59;100.00;101864.09;5027239;28;20087;-67
2023/10/09 09:36:05;;;;;;;22.27;19.88;;;;;;;16.60;100.00;101868.50;5014090;28;20061;-68
2023/10/09 09:38:42;;;;;;;21.10;18.52;;;;;;;16.63;100.00;101873.78;5005602;28;20029;-67
2023/10/09 09:41:08;;;;;;;24.13;18.95;;;;;;;16.66;100.00;101877.38;5007850;28;20092;-67
2023/10/09 09:43:36;;;;;;;21.48;18.60;;;;;;;16.70;100.00;101886.16;5008283;28;20037;-68
2023/10/09 09:46:07;;;;;;;23.45;19.65;;;;;;;16.71;100.00;101879.22;5007855;28;20104;-67
2023/10/09 09:48:39;;;;;;;21.73;19.40;;;;;;;16.73;100.00;101888.84;5007602;28;20101;-68
2023/10/09 09:51:06;;;;;;;20.95;18.45;;;;;;;16.76;100.00;101886.31;5007495;28;20052;-68
2023/10/09 09:53:34;;;;;;;23.33;19.10;;;;;;;16.79;100.00;101889.00;5012044;28;20112;-68
2023/10/09 09:56:02;;;;;;;20.85;17.95;;;;;;;16.80;100.00;101888.13;5010794;28;20040;-67
2023/10/09 09:58:32;;;;;;;28.95;20.15;;;;;;;16.84;100.00;101891.72;5010132;28;20148;-68
2023/10/09 10:01:16;;;;;;;23.67;19.38;;;;;;;16.87;100.00;101888.28;5012732;28;20032;-68
2023/10/09 10:03:52;;;;;;;20.65;18.45;;;;;;;16.91;100.00;101884.88;5009676;28;20371;-68
2023/10/09 10:06:26;;;;;;;23.08;20.60;;;;;;;16.93;100.00;101880.56;5011045;28;20036;-67
2023/10/09 10:08:52;;;;;;;23.90;19.98;;;;;;;16.99;100.00;101877.19;5013233;28;20324;-68
2023/10/09 10:11:45;;;;;;;25.15;19.48;;;;;;;17.04;100.00;101886.94;5010022;28;20022;-68
2023/10/09 10:14:31;;;;;;;27.77;22.73;;;;;;;17.09;100.00;101888.78;5007295;28;20105;-68
2023/10/09 10:17:21;;;;;;;23.50;20.90;;;;;;;17.12;100.00;101889.75;5011072;28;20030;-68
2023/10/09 10:22:51;;;;;;;24.70;20.08;;;;;;;17.22;100.00;101884.69;4995577;28;20047;-68
2023/10/09 10:25:49;;;;;;;26.33;20.70;;;;;;;17.26;100.00;101887.41;5006953;28;20026;-68
2023/10/09 10:31:04;;;;;;;27.92;21.65;;;;;;;17.34;100.00;101884.94;5006128;28;20052;-68
2023/10/09 10:33:58;;;;;;;28.02;23.23;;;;;;;17.38;100.00;101881.53;5005840;28;20022;-68
2023/10/09 10:36:26;;;;;;;26.85;22.85;;;;;;;17.42;100.00;101885.09;5006218;28;20489;-68
2023/10/09 10:39:10;;;;;;;28.42;23.85;;;;;;;17.43;100.00;101889.47;5005160;28;20052;-68
2023/10/09 10:41:50;;;;;;;30.80;22.75;;;;;;;17.47;100.00;101885.19;5006022;28;20540;-68
2023/10/09 10:44:33;;;;;;;27.63;23.65;;;;;;;17.51;100.00;101885.28;5005600;28;20401;-68
2023/10/09 10:46:59;;;;;;;26.90;23.27;;;;;;;17.59;100.00;101884.56;5005795;28;20053;-68
2023/10/09 10:49:26;;;;;;;28.63;23.58;;;;;;;17.66;100.00;101875.97;5005387;28;20030;-68
2023/10/09 10:57:01;;;;;;;30.48;25.60;;;;;;;17.82;100.00;101876.25;5011594;28;20030;-68
2023/10/09 10:59:39;;;;;;;28.13;23.15;;;;;;;17.85;100.00;101873.66;5012814;28;20029;-68
2023/10/09 11:04:44;;;;;;;27.08;23.55;;;;;;;17.93;100.00;101893.06;5012350;28;20718;-68
2023/10/09 11:07:12;;;;;;;29.42;22.55;;;;;;;17.96;100.00;101885.25;5010008;28;20062;-68
2023/10/09 11:09:57;;;;;;;30.02;23.15;;;;;;;17.99;100.00;101893.16;5010668;28;20083;-68
2023/10/09 11:12:23;;;;;;;29.02;22.58;;;;;;;18.03;100.00;101890.56;5012129;28;20108;-68
2023/10/09 11:15:08;;;;;;;28.15;25.17;;;;;;;18.00;100.00;101894.06;5011350;28;20867;-68
2023/10/09 11:17:35;;;;;;;26.10;22.88;;;;;;;18.04;100.00;101887.13;5023935;28;20022;-68
2023/10/09 11:20:23;;;;;;;26.58;22.88;;;;;;;18.11;100.00;101896.88;5022532;28;20037;-68
2023/10/09 11:25:35;;;;;;;27.65;24.30;;;;;;;18.34;100.00;101891.16;5030462;28;20044;-68
2023/10/09 11:28:27;;;;;;;29.10;22.08;;;;;;;18.45;100.00;101889.59;5029793;28;20401;-69
2023/10/09 11:30:46;;;;;;;27.75;23.63;;;;;;;18.53;100.00;101887.06;5010273;28;20046;-69
2023/10/09 11:33:14;;;;;;;26.27;22.52;;;;;;;18.58;100.00;101880.13;5010669;28;20104;-68
2023/10/09 11:35:42;;;;;;;26.92;22.50;;;;;;;18.61;100.00;101879.31;5010466;28;20356;-69
2023/10/09 11:38:20;;;;;;;25.55;22.58;;;;;;;18.64;100.00;101878.47;5010056;28;20034;-68
2023/10/09 11:43:20;;;;;;;21.48;19.05;;;;;;;18.75;100.00;101882.13;5010859;28;20292;-69
2023/10/09 11:45:56;;;;;;;24.98;17.55;;;;;;;18.81;100.00;101871.75;5010433;28;20036;-68
2023/10/09 11:48:24;;;;;;;21.55;16.73;;;;;;;18.85;100.00;101883.16;5010543;28;20049;-67
2023/10/09 11:53:58;;;;;;;16.10;14.35;;;;;;;18.96;100.00;101878.94;5010385;28;20537;-68
2023/10/09 11:56:26;;;;;;;22.73;16.85;;;;;;;19.02;100.00;101890.38;5009002;28;20084;-69
2023/10/09 11:58:53;;;;;;;19.85;16.88;;;;;;;19.02;100.00;101888.63;5010215;28;20073;-68
2023/10/09 12:01:22;;;;;;;19.55;16.05;;;;;;;19.04;100.00;101888.66;5008067;28;20026;-68
2023/10/09 12:03:52;;;;;;;20.35;16.00;;;;;;;19.05;100.00;101879.94;5010197;28;20386;-68
2023/10/09 12:06:22;;;;;;;20.75;15.77;;;;;;;19.04;100.00;101883.41;5010481;28;20029;-68
2023/10/09 12:08:48;;;;;;;16.95;13.45;;;;;;;19.02;100.00;101879.88;5010332;28;20030;-68
2023/10/09 12:11:22;;;;;;;20.70;15.65;;;;;;;19.03;100.00;101892.16;5014547;28;20026;-67
2023/10/09 12:13:48;;;;;;;19.77;14.80;;;;;;;19.04;100.00;101880.78;5023073;28;20087;-68
2023/10/09 12:16:15;;;;;;;16.48;14.63;;;;;;;19.05;100.00;101878.16;5023909;28;20029;-68
2023/10/09 12:18:41;;;;;;;17.73;13.32;;;;;;;19.08;100.00;101879.97;5015118;28;20513;-68
2023/10/09 12:21:07;;;;;;;18.92;13.48;;;;;;;19.10;100.00;101877.34;5009475;28;20030;-68
2023/10/09 12:23:35;;;;;;;15.75;12.75;;;;;;;19.08;100.00;101877.34;5010466;28;20087;-68
2023/10/09 12:26:04;;;;;;;17.13;13.77;;;;;;;19.09;100.00;101879.09;5010440;28;20030;-68
2023/10/09 12:28:32;;;;;;;13.90;12.50;;;;;;;19.08;100.00;101874.72;5005411;28;20033;-68
2023/10/09 12:31:01;;;;;;;15.88;12.07;;;;;;;19.07;100.00;101862.41;5004780;28;20030;-67
2023/10/09 12:33:28;;;;;;;13.65;11.18;;;;;;;19.08;100.00;101864.19;4997927;28;20619;-67
2023/10/09 12:36:00;;;;;;;17.98;11.35;;;;;;;19.06;100.00;101871.19;4997635;28;20029;-68
2023/10/09 12:38:31;;;;;;;13.93;10.27;;;;;;;19.06;100.00;101871.19;4994479;28;20036;-68
2023/10/09 12:41:20;;;;;;;16.75;10.50;;;;;;;19.08;100.00;101864.19;5000485;28;20409;-68
2023/10/09 12:43:48;;;;;;;15.77;10.88;;;;;;;19.11;100.00;101858.97;5006519;28;20555;-67
2023/10/09 12:46:16;;;;;;;13.75;9.57;;;;;;;19.13;100.00;101849.41;5008186;28;20037;-68
2023/10/09 12:48:47;;;;;;;12.90;9.63;;;;;;;19.16;100.00;101856.44;5009497;28;20029;-68
2023/10/09 12:51:17;;;;;;;14.20;9.50;;;;;;;19.19;100.00;101852.09;5002586;28;20467;-67
2023/10/09 12:53:43;;;;;;;12.43;8.70;;;;;;;19.23;100.00;101846.91;5007215;28;20083;-68
2023/10/09 12:56:08;;;;;;;14.60;8.80;;;;;;;19.26;100.00;101846.94;5013736;28;20450;-68
2023/10/09 12:58:37;;;;;;;13.15;9.20;;;;;;;19.26;100.00;101837.31;5009343;28;20050;-68
2023/10/09 13:01:09;;;;;;;15.32;9.80;;;;;;;19.28;100.00;101832.06;5008916;28;20017;-68
2023/10/09 13:03:38;;;;;;;15.38;9.38;;;;;;;19.30;100.00;101828.56;5008712;28;20675;-69
2023/10/09 13:06:07;;;;;;;13.63;8.68;;;;;;;19.33;100.00;101827.75;5008654;28;20030;-69
2023/10/09 13:08:36;;;;;;;11.77;8.23;;;;;;;19.36;100.00;101825.16;5009830;28;20030;-68
2023/10/09 13:11:10;;;;;;;13.05;8.48;;;;;;;19.40;100.00;101812.91;5008751;28;20025;-67
2023/10/09 13:13:42;;;;;;;10.63;8.52;;;;;;;19.41;100.00;101815.56;5009183;28;20026;-69
2023/10/09 13:16:23;;;;;;;13.07;9.48;;;;;;;19.44;100.00;101815.63;5012913;28;20033;-68
2023/10/09 13:18:56;;;;;;;13.75;8.85;;;;;;;19.44;100.00;101831.38;5016222;28;20022;-68
2023/10/09 13:21:37;;;;;;;10.35;7.47;;;;;;;19.46;100.00;101818.25;5025403;28;20104;-68
2023/10/09 13:24:02;;;;;;;10.32;7.90;;;;;;;19.47;100.00;101824.38;5013253;28;20078;-68
2023/10/09 13:26:29;;;;;;;18.88;8.07;;;;;;;19.49;100.00;101830.53;4996461;28;20030;-68
2023/10/09 13:28:56;;;;;;;11.88;7.70;;;;;;;19.49;100.00;101831.41;5014613;28;20080;-69
2023/10/09 13:31:27;;;;;;;13.20;7.95;;;;;;;19.50;100.00;101830.53;5020704;28;20064;-67
2023/10/09 13:33:58;;;;;;;10.68;7.95;;;;;;;19.50;100.00;101840.19;5018363;28;20022;-68
2023/10/09 13:36:31;;;;;;;11.00;7.60;;;;;;;19.50;100.00;101838.44;5010002;28;20018;-68